sensor_id;sensor_type;location;lat;lon;timestamp;temperature;humidity
13198;DHT22;6664;52.514;13.440;2023-07-20T00:00:38;16.30;61.90
13198;DHT22;6664;52.514;13.440;2023-07-20T00:03:23;16.30;61.40
13198;DHT22;6664;52.514;13.440;2023-07-20T00:06:11;16.30;62.40
13198;DHT22;6664;52.514;13.440;2023-07-20T00:08:58;16.30;62.20
13198;DHT22;6664;52.514;13.440;2023-07-20T00:11:51;16.20;62.40
13198;DHT22;6664;52.514;13.440;2023-07-20T00:14:36;16.20;62.40
13198;DHT22;6664;52.514;13.440;2023-07-20T00:17:22;16.20;63.60
13198;DHT22;6664;52.514;13.440;2023-07-20T00:20:08;16.10;63.90
13198;DHT22;6664;52.514;13.440;2023-07-20T00:22:54;16.00;64.90
13198;DHT22;6664;52.514;13.440;2023-07-20T00:25:45;16.00;66.80
13198;DHT22;6664;52.514;13.440;2023-07-20T00:28:32;16.00;67.50
13198;DHT22;6664;52.514;13.440;2023-07-20T00:31:18;16.00;66.00
13198;DHT22;6664;52.514;13.440;2023-07-20T00:34:04;16.00;65.70
13198;DHT22;6664;52.514;13.440;2023-07-20T00:36:53;15.90;66.50
13198;DHT22;6664;52.514;13.440;2023-07-20T00:39:39;15.90;67.10
13198;DHT22;6664;52.514;13.440;2023-07-20T00:42:25;15.70;68.40
13198;DHT22;6664;52.514;13.440;2023-07-20T00:45:10;15.70;71.30
13198;DHT22;6664;52.514;13.440;2023-07-20T00:48:03;15.90;70.60
13198;DHT22;6664;52.514;13.440;2023-07-20T00:50:49;15.80;71.60
13198;DHT22;6664;52.514;13.440;2023-07-20T00:53:35;15.80;70.00
13198;DHT22;6664;52.514;13.440;2023-07-20T00:56:21;15.80;70.10
13198;DHT22;6664;52.514;13.440;2023-07-20T00:59:10;15.80;70.60
13198;DHT22;6664;52.514;13.440;2023-07-20T01:01:56;15.90;69.00
13198;DHT22;6664;52.514;13.440;2023-07-20T01:04:42;15.90;68.50
13198;DHT22;6664;52.514;13.440;2023-07-20T01:07:31;15.90;67.40
13198;DHT22;6664;52.514;13.440;2023-07-20T01:10:29;15.90;67.60
13198;DHT22;6664;52.514;13.440;2023-07-20T01:13:18;16.00;66.70
13198;DHT22;6664;52.514;13.440;2023-07-20T01:16:05;16.10;66.00
13198;DHT22;6664;52.514;13.440;2023-07-20T01:18:50;16.20;63.90
13198;DHT22;6664;52.514;13.440;2023-07-20T01:21:55;16.20;63.40
13198;DHT22;6664;52.514;13.440;2023-07-20T01:31:30;16.30;60.00
13198;DHT22;6664;52.514;13.440;2023-07-20T01:34:17;16.40;58.80
13198;DHT22;6664;52.514;13.440;2023-07-20T01:37:05;16.30;57.60
13198;DHT22;6664;52.514;13.440;2023-07-20T01:39:55;16.30;58.50
13198;DHT22;6664;52.514;13.440;2023-07-20T01:42:45;16.30;58.20
13198;DHT22;6664;52.514;13.440;2023-07-20T01:45:31;16.30;58.30
13198;DHT22;6664;52.514;13.440;2023-07-20T01:48:19;16.10;59.60
13198;DHT22;6664;52.514;13.440;2023-07-20T01:51:04;16.10;60.40
13198;DHT22;6664;52.514;13.440;2023-07-20T01:53:50;16.10;60.30
13198;DHT22;6664;52.514;13.440;2023-07-20T01:56:35;16.10;60.90
13198;DHT22;6664;52.514;13.440;2023-07-20T01:59:21;16.10;60.50
13198;DHT22;6664;52.514;13.440;2023-07-20T02:02:08;16.10;60.60
13198;DHT22;6664;52.514;13.440;2023-07-20T02:04:54;16.20;60.10
13198;DHT22;6664;52.514;13.440;2023-07-20T02:07:40;16.20;59.20
13198;DHT22;6664;52.514;13.440;2023-07-20T02:10:26;16.20;59.00
13198;DHT22;6664;52.514;13.440;2023-07-20T02:13:11;16.10;58.30
13198;DHT22;6664;52.514;13.440;2023-07-20T02:15:56;16.10;58.90
13198;DHT22;6664;52.514;13.440;2023-07-20T02:18:44;15.90;58.00
13198;DHT22;6664;52.514;13.440;2023-07-20T02:21:32;16.00;59.00
13198;DHT22;6664;52.514;13.440;2023-07-20T02:24:17;16.00;58.70
13198;DHT22;6664;52.514;13.440;2023-07-20T02:27:04;16.00;58.20
13198;DHT22;6664;52.514;13.440;2023-07-20T02:29:54;16.10;58.10
13198;DHT22;6664;52.514;13.440;2023-07-20T02:32:39;16.00;58.00
13198;DHT22;6664;52.514;13.440;2023-07-20T02:35:25;15.90;58.20
13198;DHT22;6664;52.514;13.440;2023-07-20T02:38:11;15.80;60.00
13198;DHT22;6664;52.514;13.440;2023-07-20T02:40:58;15.80;60.80
13198;DHT22;6664;52.514;13.440;2023-07-20T02:43:44;15.70;61.90
13198;DHT22;6664;52.514;13.440;2023-07-20T02:46:29;15.70;61.90
13198;DHT22;6664;52.514;13.440;2023-07-20T02:49:15;15.70;62.70
13198;DHT22;6664;52.514;13.440;2023-07-20T02:52:01;15.70;61.90
13198;DHT22;6664;52.514;13.440;2023-07-20T02:54:46;15.80;62.00
13198;DHT22;6664;52.514;13.440;2023-07-20T02:57:36;15.80;60.80
13198;DHT22;6664;52.514;13.440;2023-07-20T03:00:22;15.80;59.80
13198;DHT22;6664;52.514;13.440;2023-07-20T03:03:11;15.80;60.20
13198;DHT22;6664;52.514;13.440;2023-07-20T03:05:57;15.80;59.60
13198;DHT22;6664;52.514;13.440;2023-07-20T03:08:44;15.80;59.80
13198;DHT22;6664;52.514;13.440;2023-07-20T03:11:33;15.70;59.80
13198;DHT22;6664;52.514;13.440;2023-07-20T03:14:19;15.70;60.10
13198;DHT22;6664;52.514;13.440;2023-07-20T03:17:04;15.70;59.70
13198;DHT22;6664;52.514;13.440;2023-07-20T03:19:50;15.60;61.00
13198;DHT22;6664;52.514;13.440;2023-07-20T03:22:36;15.60;61.10
13198;DHT22;6664;52.514;13.440;2023-07-20T03:25:21;15.70;60.50
13198;DHT22;6664;52.514;13.440;2023-07-20T03:28:09;15.70;60.00
13198;DHT22;6664;52.514;13.440;2023-07-20T03:30:56;15.80;59.80
13198;DHT22;6664;52.514;13.440;2023-07-20T03:33:41;15.70;59.60
13198;DHT22;6664;52.514;13.440;2023-07-20T03:36:28;15.70;59.80
13198;DHT22;6664;52.514;13.440;2023-07-20T03:39:13;15.70;60.30
13198;DHT22;6664;52.514;13.440;2023-07-20T03:41:59;15.80;60.00
13198;DHT22;6664;52.514;13.440;2023-07-20T03:44:47;15.80;59.00
13198;DHT22;6664;52.514;13.440;2023-07-20T03:47:33;15.80;58.90
13198;DHT22;6664;52.514;13.440;2023-07-20T03:50:18;15.90;58.60
13198;DHT22;6664;52.514;13.440;2023-07-20T03:53:04;15.90;58.30
13198;DHT22;6664;52.514;13.440;2023-07-20T03:55:55;15.90;58.90
13198;DHT22;6664;52.514;13.440;2023-07-20T03:58:41;15.80;58.80
13198;DHT22;6664;52.514;13.440;2023-07-20T04:01:30;16.00;58.70
13198;DHT22;6664;52.514;13.440;2023-07-20T04:04:24;16.00;57.10
13198;DHT22;6664;52.514;13.440;2023-07-20T04:07:10;15.80;57.50
13198;DHT22;6664;52.514;13.440;2023-07-20T04:09:56;15.80;58.00
13198;DHT22;6664;52.514;13.440;2023-07-20T04:12:41;15.70;58.30
13198;DHT22;6664;52.514;13.440;2023-07-20T04:15:27;15.80;58.20
13198;DHT22;6664;52.514;13.440;2023-07-20T04:18:12;15.90;56.80
13198;DHT22;6664;52.514;13.440;2023-07-20T04:20:58;15.90;56.60
13198;DHT22;6664;52.514;13.440;2023-07-20T04:23:46;15.90;56.60
13198;DHT22;6664;52.514;13.440;2023-07-20T04:26:33;16.10;55.20
13198;DHT22;6664;52.514;13.440;2023-07-20T04:29:19;16.10;54.50
13198;DHT22;6664;52.514;13.440;2023-07-20T04:32:08;16.00;54.10
13198;DHT22;6664;52.514;13.440;2023-07-20T04:34:54;16.10;54.80
13198;DHT22;6664;52.514;13.440;2023-07-20T04:37:42;16.10;54.20
13198;DHT22;6664;52.514;13.440;2023-07-20T04:40:33;16.10;53.90
13198;DHT22;6664;52.514;13.440;2023-07-20T04:43:18;16.20;53.00
13198;DHT22;6664;52.514;13.440;2023-07-20T04:46:05;16.20;53.00
13198;DHT22;6664;52.514;13.440;2023-07-20T04:48:50;16.10;51.90
13198;DHT22;6664;52.514;13.440;2023-07-20T04:51:35;16.20;52.00
13198;DHT22;6664;52.514;13.440;2023-07-20T04:54:22;16.50;50.90
13198;DHT22;6664;52.514;13.440;2023-07-20T04:57:11;16.50;51.60
13198;DHT22;6664;52.514;13.440;2023-07-20T04:59:57;16.70;49.80
13198;DHT22;6664;52.514;13.440;2023-07-20T05:02:45;16.60;48.90
13198;DHT22;6664;52.514;13.440;2023-07-20T05:05:33;16.60;48.80
13198;DHT22;6664;52.514;13.440;2023-07-20T05:08:18;16.70;47.80
13198;DHT22;6664;52.514;13.440;2023-07-20T05:11:04;16.60;47.10
13198;DHT22;6664;52.514;13.440;2023-07-20T05:13:52;16.50;46.30
13198;DHT22;6664;52.514;13.440;2023-07-20T05:16:40;16.40;45.80
13198;DHT22;6664;52.514;13.440;2023-07-20T05:19:26;16.30;45.70
13198;DHT22;6664;52.514;13.440;2023-07-20T05:22:13;16.20;44.90
13198;DHT22;6664;52.514;13.440;2023-07-20T05:25:01;16.10;46.20
13198;DHT22;6664;52.514;13.440;2023-07-20T05:27:47;16.10;45.80
13198;DHT22;6664;52.514;13.440;2023-07-20T05:30:38;16.10;45.70
13198;DHT22;6664;52.514;13.440;2023-07-20T05:33:27;16.10;44.60
13198;DHT22;6664;52.514;13.440;2023-07-20T05:36:13;16.10;46.60
13198;DHT22;6664;52.514;13.440;2023-07-20T05:39:08;16.20;46.20
13198;DHT22;6664;52.514;13.440;2023-07-20T05:41:54;16.30;44.90
13198;DHT22;6664;52.514;13.440;2023-07-20T05:44:42;16.40;45.20
13198;DHT22;6664;52.514;13.440;2023-07-20T05:47:29;16.50;45.00
13198;DHT22;6664;52.514;13.440;2023-07-20T05:50:15;16.70;43.40
13198;DHT22;6664;52.514;13.440;2023-07-20T05:53:01;16.90;42.10
13198;DHT22;6664;52.514;13.440;2023-07-20T05:55:54;17.00;42.70
13198;DHT22;6664;52.514;13.440;2023-07-20T05:58:40;17.30;38.80
13198;DHT22;6664;52.514;13.440;2023-07-20T06:01:29;17.40;38.50
13198;DHT22;6664;52.514;13.440;2023-07-20T06:04:15;17.50;38.90
13198;DHT22;6664;52.514;13.440;2023-07-20T06:07:01;17.70;37.70
13198;DHT22;6664;52.514;13.440;2023-07-20T06:09:46;17.60;37.00
13198;DHT22;6664;52.514;13.440;2023-07-20T06:12:32;17.60;37.20
13198;DHT22;6664;52.514;13.440;2023-07-20T06:15:32;17.60;36.90
13198;DHT22;6664;52.514;13.440;2023-07-20T06:18:20;17.50;36.20
13198;DHT22;6664;52.514;13.440;2023-07-20T06:21:07;17.50;35.80
13198;DHT22;6664;52.514;13.440;2023-07-20T06:23:57;17.10;36.90
13198;DHT22;6664;52.514;13.440;2023-07-20T06:26:44;17.00;38.20
13198;DHT22;6664;52.514;13.440;2023-07-20T06:29:29;17.00;37.50
13198;DHT22;6664;52.514;13.440;2023-07-20T06:32:17;17.10;36.10
13198;DHT22;6664;52.514;13.440;2023-07-20T06:35:03;17.00;35.60
13198;DHT22;6664;52.514;13.440;2023-07-20T06:37:51;16.90;35.50
13198;DHT22;6664;52.514;13.440;2023-07-20T06:40:38;17.00;36.20
13198;DHT22;6664;52.514;13.440;2023-07-20T06:43:24;17.30;34.30
13198;DHT22;6664;52.514;13.440;2023-07-20T06:46:13;17.90;33.40
13198;DHT22;6664;52.514;13.440;2023-07-20T06:48:59;18.00;32.10
13198;DHT22;6664;52.514;13.440;2023-07-20T06:51:47;18.00;31.10
13198;DHT22;6664;52.514;13.440;2023-07-20T06:54:32;17.90;30.00
13198;DHT22;6664;52.514;13.440;2023-07-20T06:57:23;17.70;30.30
13198;DHT22;6664;52.514;13.440;2023-07-20T07:00:09;17.40;30.90
13198;DHT22;6664;52.514;13.440;2023-07-20T07:02:59;17.10;31.40
13198;DHT22;6664;52.514;13.440;2023-07-20T07:05:50;16.90;32.10
13198;DHT22;6664;52.514;13.440;2023-07-20T07:08:41;16.70;33.00
13198;DHT22;6664;52.514;13.440;2023-07-20T07:11:28;16.60;32.20
13198;DHT22;6664;52.514;13.440;2023-07-20T07:14:13;16.90;31.80
13198;DHT22;6664;52.514;13.440;2023-07-20T07:17:00;17.40;30.40
13198;DHT22;6664;52.514;13.440;2023-07-20T07:19:49;17.80;28.70
13198;DHT22;6664;52.514;13.440;2023-07-20T07:22:35;17.80;28.90
13198;DHT22;6664;52.514;13.440;2023-07-20T07:25:20;17.90;28.40
13198;DHT22;6664;52.514;13.440;2023-07-20T07:28:08;17.70;27.20
13198;DHT22;6664;52.514;13.440;2023-07-20T07:30:55;17.60;27.10
13198;DHT22;6664;52.514;13.440;2023-07-20T07:33:45;17.50;27.10
13198;DHT22;6664;52.514;13.440;2023-07-20T07:36:35;17.80;26.90
13198;DHT22;6664;52.514;13.440;2023-07-20T07:39:23;18.00;26.10
13198;DHT22;6664;52.514;13.440;2023-07-20T07:42:15;18.00;22.60
13198;DHT22;6664;52.514;13.440;2023-07-20T07:45:03;18.30;23.20
13198;DHT22;6664;52.514;13.440;2023-07-20T07:47:52;18.40;23.00
13198;DHT22;6664;52.514;13.440;2023-07-20T07:50:38;18.60;22.40
13198;DHT22;6664;52.514;13.440;2023-07-20T07:53:26;19.00;22.50
13198;DHT22;6664;52.514;13.440;2023-07-20T07:56:11;19.10;21.90
13198;DHT22;6664;52.514;13.440;2023-07-20T07:58:57;19.40;21.10
13198;DHT22;6664;52.514;13.440;2023-07-20T08:01:43;19.20;19.40
13198;DHT22;6664;52.514;13.440;2023-07-20T08:04:28;19.30;19.10
13198;DHT22;6664;52.514;13.440;2023-07-20T08:07:16;19.70;18.30
13198;DHT22;6664;52.514;13.440;2023-07-20T08:10:02;20.10;17.60
13198;DHT22;6664;52.514;13.440;2023-07-20T08:12:48;20.20;17.90
13198;DHT22;6664;52.514;13.440;2023-07-20T08:15:34;20.40;16.90
13198;DHT22;6664;52.514;13.440;2023-07-20T08:18:22;21.10;15.80
13198;DHT22;6664;52.514;13.440;2023-07-20T08:21:08;20.80;13.40
13198;DHT22;6664;52.514;13.440;2023-07-20T08:23:55;20.20;12.90
13198;DHT22;6664;52.514;13.440;2023-07-20T08:26:43;20.30;13.70
13198;DHT22;6664;52.514;13.440;2023-07-20T08:29:29;20.20;13.20
13198;DHT22;6664;52.514;13.440;2023-07-20T08:32:15;19.90;14.20
13198;DHT22;6664;52.514;13.440;2023-07-20T08:35:01;19.90;15.30
13198;DHT22;6664;52.514;13.440;2023-07-20T08:37:46;19.80;15.00
13198;DHT22;6664;52.514;13.440;2023-07-20T08:40:32;20.00;14.60
13198;DHT22;6664;52.514;13.440;2023-07-20T08:43:22;20.00;15.30
13198;DHT22;6664;52.514;13.440;2023-07-20T08:46:13;20.00;13.40
13198;DHT22;6664;52.514;13.440;2023-07-20T08:49:02;20.30;13.70
13198;DHT22;6664;52.514;13.440;2023-07-20T08:51:49;19.60;14.00
13198;DHT22;6664;52.514;13.440;2023-07-20T08:54:36;19.40;14.90
13198;DHT22;6664;52.514;13.440;2023-07-20T08:57:24;19.30;15.50
13198;DHT22;6664;52.514;13.440;2023-07-20T09:00:11;19.00;14.60
13198;DHT22;6664;52.514;13.440;2023-07-20T09:02:58;18.80;15.60
13198;DHT22;6664;52.514;13.440;2023-07-20T09:05:48;19.00;15.60
13198;DHT22;6664;52.514;13.440;2023-07-20T09:08:38;19.40;14.60
13198;DHT22;6664;52.514;13.440;2023-07-20T09:11:24;19.70;15.10
13198;DHT22;6664;52.514;13.440;2023-07-20T09:14:10;20.20;13.80
13198;DHT22;6664;52.514;13.440;2023-07-20T09:16:56;20.30;12.90
13198;DHT22;6664;52.514;13.440;2023-07-20T09:19:48;20.80;11.90
13198;DHT22;6664;52.514;13.440;2023-07-20T09:22:34;21.00;10.70
13198;DHT22;6664;52.514;13.440;2023-07-20T09:25:20;21.10;9.50
13198;DHT22;6664;52.514;13.440;2023-07-20T09:28:12;20.60;10.30
13198;DHT22;6664;52.514;13.440;2023-07-20T09:31:15;20.90;10.40
13198;DHT22;6664;52.514;13.440;2023-07-20T09:34:02;21.10;10.30
13198;DHT22;6664;52.514;13.440;2023-07-20T09:36:49;21.20;9.50
13198;DHT22;6664;52.514;13.440;2023-07-20T09:39:44;21.40;8.60
13198;DHT22;6664;52.514;13.440;2023-07-20T09:42:35;21.60;8.20
13198;DHT22;6664;52.514;13.440;2023-07-20T09:45:22;21.60;7.40
13198;DHT22;6664;52.514;13.440;2023-07-20T09:48:27;21.00;7.70
13198;DHT22;6664;52.514;13.440;2023-07-20T09:51:17;20.50;9.90
13198;DHT22;6664;52.514;13.440;2023-07-20T09:54:07;20.00;11.30
13198;DHT22;6664;52.514;13.440;2023-07-20T09:56:54;19.80;12.20
13198;DHT22;6664;52.514;13.440;2023-07-20T09:59:39;19.70;12.40
13198;DHT22;6664;52.514;13.440;2023-07-20T10:02:32;19.30;12.40
13198;DHT22;6664;52.514;13.440;2023-07-20T10:05:21;19.00;14.30
13198;DHT22;6664;52.514;13.440;2023-07-20T10:08:10;18.80;15.10
13198;DHT22;6664;52.514;13.440;2023-07-20T10:11:00;18.80;16.50
13198;DHT22;6664;52.514;13.440;2023-07-20T10:13:51;18.80;17.60
13198;DHT22;6664;52.514;13.440;2023-07-20T10:16:45;19.00;17.10
13198;DHT22;6664;52.514;13.440;2023-07-20T10:19:43;19.20;16.50
13198;DHT22;6664;52.514;13.440;2023-07-20T10:22:36;19.50;16.00
13198;DHT22;6664;52.514;13.440;2023-07-20T10:25:27;19.80;15.80
13198;DHT22;6664;52.514;13.440;2023-07-20T10:28:13;20.30;15.50
13198;DHT22;6664;52.514;13.440;2023-07-20T10:30:59;20.00;14.40
13198;DHT22;6664;52.514;13.440;2023-07-20T10:33:46;20.00;14.70
13198;DHT22;6664;52.514;13.440;2023-07-20T10:36:31;20.00;14.20
13198;DHT22;6664;52.514;13.440;2023-07-20T10:39:27;19.60;14.30
13198;DHT22;6664;52.514;13.440;2023-07-20T10:42:13;20.00;13.90
13198;DHT22;6664;52.514;13.440;2023-07-20T10:45:01;20.50;12.90
13198;DHT22;6664;52.514;13.440;2023-07-20T10:47:46;21.10;11.80
13198;DHT22;6664;52.514;13.440;2023-07-20T10:50:33;21.00;10.80
13198;DHT22;6664;52.514;13.440;2023-07-20T10:53:20;20.40;11.90
13198;DHT22;6664;52.514;13.440;2023-07-20T10:56:15;20.50;11.80
13198;DHT22;6664;52.514;13.440;2023-07-20T11:02:08;20.90;11.20
13198;DHT22;6664;52.514;13.440;2023-07-20T11:04:54;20.80;10.80
13198;DHT22;6664;52.514;13.440;2023-07-20T11:07:41;21.30;9.50
13198;DHT22;6664;52.514;13.440;2023-07-20T11:10:27;21.30;9.70
13198;DHT22;6664;52.514;13.440;2023-07-20T11:13:16;21.70;9.20
13198;DHT22;6664;52.514;13.440;2023-07-20T11:16:03;21.30;9.80
13198;DHT22;6664;52.514;13.440;2023-07-20T11:18:50;21.60;8.70
13198;DHT22;6664;52.514;13.440;2023-07-20T11:21:41;21.60;8.80
13198;DHT22;6664;52.514;13.440;2023-07-20T11:24:45;21.50;8.60
13198;DHT22;6664;52.514;13.440;2023-07-20T11:27:45;22.30;7.70
13198;DHT22;6664;52.514;13.440;2023-07-20T11:30:33;21.90;8.50
13198;DHT22;6664;52.514;13.440;2023-07-20T11:33:19;21.50;9.50
13198;DHT22;6664;52.514;13.440;2023-07-20T11:36:05;21.50;10.10
13198;DHT22;6664;52.514;13.440;2023-07-20T11:38:54;21.90;8.60
13198;DHT22;6664;52.514;13.440;2023-07-20T11:41:46;23.00;7.30
13198;DHT22;6664;52.514;13.440;2023-07-20T11:44:34;22.50;7.70
13198;DHT22;6664;52.514;13.440;2023-07-20T11:47:20;21.80;10.00
13198;DHT22;6664;52.514;13.440;2023-07-20T11:50:06;22.10;9.50
13198;DHT22;6664;52.514;13.440;2023-07-20T11:52:52;22.50;8.30
13198;DHT22;6664;52.514;13.440;2023-07-20T11:55:39;23.00;7.40
13198;DHT22;6664;52.514;13.440;2023-07-20T11:58:27;23.60;6.20
13198;DHT22;6664;52.514;13.440;2023-07-20T12:01:14;23.60;4.40
13198;DHT22;6664;52.514;13.440;2023-07-20T12:04:00;23.20;4.30
13198;DHT22;6664;52.514;13.440;2023-07-20T12:06:47;22.40;6.20
13198;DHT22;6664;52.514;13.440;2023-07-20T12:09:33;22.20;7.20
13198;DHT22;6664;52.514;13.440;2023-07-20T12:12:43;21.40;8.60
13198;DHT22;6664;52.514;13.440;2023-07-20T12:15:31;20.80;8.70
13198;DHT22;6664;52.514;13.440;2023-07-20T12:18:17;20.70;9.50
13198;DHT22;6664;52.514;13.440;2023-07-20T12:21:03;20.70;10.50
13198;DHT22;6664;52.514;13.440;2023-07-20T12:23:52;20.70;9.50
13198;DHT22;6664;52.514;13.440;2023-07-20T12:26:38;20.90;8.90
13198;DHT22;6664;52.514;13.440;2023-07-20T12:29:24;21.80;7.20
13198;DHT22;6664;52.514;13.440;2023-07-20T12:32:09;21.50;6.50
13198;DHT22;6664;52.514;13.440;2023-07-20T12:34:55;22.10;5.70
13198;DHT22;6664;52.514;13.440;2023-07-20T12:37:40;21.50;6.60
13198;DHT22;6664;52.514;13.440;2023-07-20T12:40:26;21.60;5.50
13198;DHT22;6664;52.514;13.440;2023-07-20T12:43:11;21.40;6.20
13198;DHT22;6664;52.514;13.440;2023-07-20T12:45:59;21.90;5.90
13198;DHT22;6664;52.514;13.440;2023-07-20T12:48:47;23.60;2.20
13198;DHT22;6664;52.514;13.440;2023-07-20T12:51:34;29.70;1.00
13198;DHT22;6664;52.514;13.440;2023-07-20T12:54:24;32.50;1.00
13198;DHT22;6664;52.514;13.440;2023-07-20T12:57:10;32.70;1.00
13198;DHT22;6664;52.514;13.440;2023-07-20T12:59:57;34.70;1.00
13198;DHT22;6664;52.514;13.440;2023-07-20T13:02:43;34.00;1.00
13198;DHT22;6664;52.514;13.440;2023-07-20T13:05:29;36.10;1.00
13198;DHT22;6664;52.514;13.440;2023-07-20T13:08:18;39.50;1.00
13198;DHT22;6664;52.514;13.440;2023-07-20T13:11:05;37.70;1.00
13198;DHT22;6664;52.514;13.440;2023-07-20T13:13:51;41.70;1.00
13198;DHT22;6664;52.514;13.440;2023-07-20T13:16:39;46.10;1.00
13198;DHT22;6664;52.514;13.440;2023-07-20T13:19:26;47.20;1.00
13198;DHT22;6664;52.514;13.440;2023-07-20T13:22:15;47.50;1.00
13198;DHT22;6664;52.514;13.440;2023-07-20T13:25:00;46.00;1.00
13198;DHT22;6664;52.514;13.440;2023-07-20T13:27:46;45.70;1.00
13198;DHT22;6664;52.514;13.440;2023-07-20T13:30:32;42.40;1.00
13198;DHT22;6664;52.514;13.440;2023-07-20T13:33:18;44.00;1.00
13198;DHT22;6664;52.514;13.440;2023-07-20T13:36:04;48.90;1.00
13198;DHT22;6664;52.514;13.440;2023-07-20T13:38:54;49.60;1.00
13198;DHT22;6664;52.514;13.440;2023-07-20T13:41:39;48.20;1.00
13198;DHT22;6664;52.514;13.440;2023-07-20T13:44:25;51.10;1.00
13198;DHT22;6664;52.514;13.440;2023-07-20T13:47:13;47.80;1.00
13198;DHT22;6664;52.514;13.440;2023-07-20T13:50:02;47.50;1.00
13198;DHT22;6664;52.514;13.440;2023-07-20T13:52:48;48.30;1.00
13198;DHT22;6664;52.514;13.440;2023-07-20T13:55:34;51.00;1.00
13198;DHT22;6664;52.514;13.440;2023-07-20T13:58:25;48.90;1.00
13198;DHT22;6664;52.514;13.440;2023-07-20T14:01:10;47.60;1.00
13198;DHT22;6664;52.514;13.440;2023-07-20T14:04:16;42.40;1.00
13198;DHT22;6664;52.514;13.440;2023-07-20T14:07:02;39.10;1.00
13198;DHT22;6664;52.514;13.440;2023-07-20T14:09:50;43.20;1.00
13198;DHT22;6664;52.514;13.440;2023-07-20T14:12:39;42.80;1.00
13198;DHT22;6664;52.514;13.440;2023-07-20T14:15:28;43.70;1.00
13198;DHT22;6664;52.514;13.440;2023-07-20T14:18:16;44.20;1.00
13198;DHT22;6664;52.514;13.440;2023-07-20T14:21:05;44.70;1.00
13198;DHT22;6664;52.514;13.440;2023-07-20T14:23:53;44.20;1.00
13198;DHT22;6664;52.514;13.440;2023-07-20T14:26:41;45.20;1.00
13198;DHT22;6664;52.514;13.440;2023-07-20T14:29:28;45.60;1.00
13198;DHT22;6664;52.514;13.440;2023-07-20T14:32:16;41.00;1.00
13198;DHT22;6664;52.514;13.440;2023-07-20T14:35:03;43.10;1.00
13198;DHT22;6664;52.514;13.440;2023-07-20T14:37:49;39.60;1.00
13198;DHT22;6664;52.514;13.440;2023-07-20T14:40:35;36.20;1.00
13198;DHT22;6664;52.514;13.440;2023-07-20T14:43:21;33.10;1.00
13198;DHT22;6664;52.514;13.440;2023-07-20T14:46:06;33.90;1.00
13198;DHT22;6664;52.514;13.440;2023-07-20T14:48:54;31.90;1.00
13198;DHT22;6664;52.514;13.440;2023-07-20T14:51:39;29.80;1.00
13198;DHT22;6664;52.514;13.440;2023-07-20T14:54:29;29.30;1.00
13198;DHT22;6664;52.514;13.440;2023-07-20T14:57:14;30.90;1.00
13198;DHT22;6664;52.514;13.440;2023-07-20T15:00:02;31.80;1.00
13198;DHT22;6664;52.514;13.440;2023-07-20T15:02:54;28.40;1.00
13198;DHT22;6664;52.514;13.440;2023-07-20T15:05:41;27.00;1.00
13198;DHT22;6664;52.514;13.440;2023-07-20T15:08:28;25.90;1.00
13198;DHT22;6664;52.514;13.440;2023-07-20T15:11:13;25.20;1.00
13198;DHT22;6664;52.514;13.440;2023-07-20T15:13:59;24.90;1.00
13198;DHT22;6664;52.514;13.440;2023-07-20T15:16:45;24.60;1.00
13198;DHT22;6664;52.514;13.440;2023-07-20T15:19:36;24.60;1.00
13198;DHT22;6664;52.514;13.440;2023-07-20T15:22:21;24.80;1.00
13198;DHT22;6664;52.514;13.440;2023-07-20T15:25:08;25.00;1.00
13198;DHT22;6664;52.514;13.440;2023-07-20T15:27:56;25.50;1.00
13198;DHT22;6664;52.514;13.440;2023-07-20T15:30:42;25.00;1.00
13198;DHT22;6664;52.514;13.440;2023-07-20T15:33:30;24.30;1.00
13198;DHT22;6664;52.514;13.440;2023-07-20T15:36:18;24.50;1.00
13198;DHT22;6664;52.514;13.440;2023-07-20T15:39:03;24.70;1.00
13198;DHT22;6664;52.514;13.440;2023-07-20T15:41:50;24.40;1.00
13198;DHT22;6664;52.514;13.440;2023-07-20T15:44:35;24.20;1.00
13198;DHT22;6664;52.514;13.440;2023-07-20T15:47:21;24.40;1.00
13198;DHT22;6664;52.514;13.440;2023-07-20T15:50:08;24.20;1.00
13198;DHT22;6664;52.514;13.440;2023-07-20T15:52:58;24.50;1.00
13198;DHT22;6664;52.514;13.440;2023-07-20T15:55:43;24.60;1.00
13198;DHT22;6664;52.514;13.440;2023-07-20T15:58:29;24.10;1.00
13198;DHT22;6664;52.514;13.440;2023-07-20T16:01:15;23.40;1.00
13198;DHT22;6664;52.514;13.440;2023-07-20T16:04:04;23.00;1.00
13198;DHT22;6664;52.514;13.440;2023-07-20T16:06:49;22.70;1.00
13198;DHT22;6664;52.514;13.440;2023-07-20T16:09:35;22.50;1.00
13198;DHT22;6664;52.514;13.440;2023-07-20T16:12:21;22.40;1.00
13198;DHT22;6664;52.514;13.440;2023-07-20T16:15:11;22.30;1.00
13198;DHT22;6664;52.514;13.440;2023-07-20T16:17:59;22.10;1.00
13198;DHT22;6664;52.514;13.440;2023-07-20T16:20:45;21.90;1.00
13198;DHT22;6664;52.514;13.440;2023-07-20T16:23:35;21.80;1.00
13198;DHT22;6664;52.514;13.440;2023-07-20T16:26:21;21.80;1.00
13198;DHT22;6664;52.514;13.440;2023-07-20T16:29:06;22.00;1.00
13198;DHT22;6664;52.514;13.440;2023-07-20T16:31:58;22.80;1.00
13198;DHT22;6664;52.514;13.440;2023-07-20T16:34:46;23.10;1.00
13198;DHT22;6664;52.514;13.440;2023-07-20T16:37:36;23.10;1.00
13198;DHT22;6664;52.514;13.440;2023-07-20T16:40:21;22.70;1.00
13198;DHT22;6664;52.514;13.440;2023-07-20T16:43:10;22.40;1.00
13198;DHT22;6664;52.514;13.440;2023-07-20T16:46:06;22.20;1.00
13198;DHT22;6664;52.514;13.440;2023-07-20T16:48:56;22.10;1.00
13198;DHT22;6664;52.514;13.440;2023-07-20T16:51:44;22.00;1.00
13198;DHT22;6664;52.514;13.440;2023-07-20T16:54:30;21.90;1.00
13198;DHT22;6664;52.514;13.440;2023-07-20T16:57:16;21.80;1.00
13198;DHT22;6664;52.514;13.440;2023-07-20T17:00:02;21.80;1.00
13198;DHT22;6664;52.514;13.440;2023-07-20T17:02:51;22.10;1.00
13198;DHT22;6664;52.514;13.440;2023-07-20T17:05:37;21.90;1.00
13198;DHT22;6664;52.514;13.440;2023-07-20T17:08:25;22.10;1.00
13198;DHT22;6664;52.514;13.440;2023-07-20T17:11:10;22.20;1.00
13198;DHT22;6664;52.514;13.440;2023-07-20T17:13:56;22.20;1.00
13198;DHT22;6664;52.514;13.440;2023-07-20T17:16:41;22.10;1.00
13198;DHT22;6664;52.514;13.440;2023-07-20T17:19:27;21.60;1.00
13198;DHT22;6664;52.514;13.440;2023-07-20T17:22:16;21.40;1.00
13198;DHT22;6664;52.514;13.440;2023-07-20T17:25:02;21.10;1.00
13198;DHT22;6664;52.514;13.440;2023-07-20T17:27:50;21.00;1.00
13198;DHT22;6664;52.514;13.440;2023-07-20T17:30:39;20.90;1.00
13198;DHT22;6664;52.514;13.440;2023-07-20T17:33:24;20.70;1.00
13198;DHT22;6664;52.514;13.440;2023-07-20T17:36:10;20.50;1.00
13198;DHT22;6664;52.514;13.440;2023-07-20T17:38:59;20.50;1.00
13198;DHT22;6664;52.514;13.440;2023-07-20T17:41:44;20.50;1.00
13198;DHT22;6664;52.514;13.440;2023-07-20T17:44:31;20.30;1.00
13198;DHT22;6664;52.514;13.440;2023-07-20T17:47:16;20.20;1.00
13198;DHT22;6664;52.514;13.440;2023-07-20T17:50:06;20.20;1.00
13198;DHT22;6664;52.514;13.440;2023-07-20T17:52:52;20.10;1.00
13198;DHT22;6664;52.514;13.440;2023-07-20T17:55:39;20.00;1.00